createdAt,value
2017-05-24T00:00:44.111Z,0
2017-05-24T00:01:44.183Z,0
2017-05-24T00:02:44.237Z,0
2017-05-24T00:03:44.355Z,0
2017-05-24T00:04:44.388Z,0
2017-05-24T00:05:44.332Z,0
2017-05-24T00:06:44.349Z,0
2017-05-24T00:07:44.394Z,0
2017-05-24T00:08:44.440Z,0
2017-05-24T00:09:44.448Z,0
2017-05-24T00:10:44.499Z,0
2017-05-24T00:11:44.519Z,0
2017-05-24T00:12:44.565Z,0
2017-05-24T00:13:44.602Z,0
2017-05-24T00:14:44.612Z,0
2017-05-24T00:15:44.655Z,0
2017-05-24T00:16:44.705Z,0
2017-05-24T00:17:44.748Z,0
2017-05-24T00:18:44.762Z,0
2017-05-24T00:19:44.846Z,0
2017-05-24T00:20:44.830Z,0
2017-05-24T00:21:44.867Z,0
2017-05-24T00:22:44.891Z,0
2017-05-24T00:23:44.948Z,0
2017-05-24T00:24:44.956Z,0
2017-05-24T00:25:44.990Z,0
2017-05-24T00:26:45.025Z,0
2017-05-24T00:27:45.093Z,0
2017-05-24T00:28:45.116Z,0
2017-05-24T00:29:45.144Z,0
2017-05-24T00:30:45.177Z,0
2017-05-24T00:31:45.215Z,0
2017-05-24T00:32:45.257Z,0
2017-05-24T00:33:45.260Z,0
2017-05-24T00:34:45.331Z,0
2017-05-24T00:35:45.343Z,0
2017-05-24T00:36:45.366Z,0
2017-05-24T00:37:45.397Z,0
2017-05-24T00:38:45.495Z,0
2017-05-24T00:39:45.485Z,0
2017-05-24T00:40:45.520Z,0
2017-05-24T00:41:45.544Z,0
2017-05-24T00:42:45.574Z,0
2017-05-24T00:43:45.625Z,0
2017-05-24T00:44:45.644Z,0
2017-05-24T00:45:45.658Z,0
2017-05-24T00:46:45.688Z,0
2017-05-24T00:47:45.745Z,0
2017-05-24T00:48:45.770Z,0
2017-05-24T00:49:45.809Z,0
2017-05-24T00:50:45.843Z,0
2017-05-24T00:51:45.878Z,0
2017-05-24T00:52:45.908Z,0
2017-05-24T00:53:45.946Z,0
2017-05-24T00:54:45.980Z,0
2017-05-24T00:55:46.003Z,0
2017-05-24T00:56:46.045Z,0
2017-05-24T00:57:46.094Z,0
2017-05-24T00:58:46.118Z,0
2017-05-24T00:59:46.219Z,0
2017-05-24T01:00:46.158Z,0
2017-05-24T01:01:46.208Z,0
2017-05-24T01:02:46.259Z,0
2017-05-24T01:03:46.285Z,0
2017-05-24T01:04:46.286Z,0
2017-05-24T01:05:46.341Z,0
2017-05-24T01:06:46.366Z,0
2017-05-24T01:07:46.417Z,0
2017-05-24T01:08:46.439Z,0
2017-05-24T01:09:46.465Z,0
2017-05-24T01:10:46.503Z,0
2017-05-24T01:11:46.536Z,0
2017-05-24T01:12:46.761Z,0
2017-05-24T01:13:46.622Z,0
2017-05-24T01:14:46.647Z,0
2017-05-24T01:15:46.689Z,0
2017-05-24T01:16:46.698Z,0
2017-05-24T01:17:46.732Z,0
2017-05-24T01:18:46.850Z,0
2017-05-24T01:19:46.786Z,0
2017-05-24T01:20:46.837Z,0
2017-05-24T01:21:46.865Z,0
2017-05-24T01:22:46.902Z,0
2017-05-24T01:23:46.934Z,0
2017-05-24T01:24:46.957Z,0
2017-05-24T01:25:47.006Z,0
2017-05-24T01:26:47.040Z,0
2017-05-24T01:27:47.053Z,0
2017-05-24T01:28:47.077Z,0
2017-05-24T01:29:47.152Z,0
2017-05-24T01:30:47.172Z,0
2017-05-24T01:31:47.207Z,0
2017-05-24T01:32:47.227Z,0
2017-05-24T01:33:47.275Z,0
2017-05-24T01:34:47.317Z,0
2017-05-24T01:35:47.683Z,0
2017-05-24T01:36:47.350Z,0
2017-05-24T01:37:47.398Z,0
2017-05-24T01:38:47.429Z,0
2017-05-24T01:39:47.390Z,0
2017-05-24T01:40:47.526Z,0
2017-05-24T01:41:47.524Z,0
2017-05-24T01:42:47.549Z,0
2017-05-24T01:43:47.596Z,0
2017-05-24T01:44:47.636Z,0
2017-05-24T01:45:47.671Z,0
2017-05-24T01:46:47.696Z,0
2017-05-24T01:47:47.753Z,0
2017-05-24T01:48:47.759Z,0
2017-05-24T01:49:47.901Z,0
2017-05-24T01:50:47.836Z,0
2017-05-24T01:51:47.850Z,0
2017-05-24T01:52:47.904Z,0
2017-05-24T01:53:47.930Z,0
2017-05-24T01:54:47.960Z,0
2017-05-24T01:55:47.994Z,0
2017-05-24T01:56:48.013Z,0
2017-05-24T01:57:48.072Z,0
2017-05-24T01:58:48.097Z,0
2017-05-24T01:59:48.138Z,0
2017-05-24T02:00:48.126Z,0
2017-05-24T02:01:48.217Z,0
2017-05-24T02:02:48.206Z,0
2017-05-24T02:03:48.331Z,0
2017-05-24T02:04:48.287Z,0
2017-05-24T02:05:48.297Z,0
2017-05-24T02:06:48.356Z,0
2017-05-24T02:07:48.407Z,0
2017-05-24T02:08:48.425Z,0
2017-05-24T02:09:48.442Z,0
2017-05-24T02:10:48.496Z,0
2017-05-24T02:11:48.520Z,0
2017-05-24T02:12:48.569Z,0
2017-05-24T02:13:48.617Z,0
2017-05-24T02:14:48.629Z,0
2017-05-24T02:15:48.657Z,0
2017-05-24T02:16:48.698Z,0
2017-05-24T02:17:48.731Z,0
2017-05-24T02:18:48.733Z,0
2017-05-24T02:19:48.761Z,0
2017-05-24T02:20:48.833Z,0
2017-05-24T02:21:48.854Z,0
2017-05-24T02:22:48.900Z,0
2017-05-24T02:23:48.954Z,0
2017-05-24T02:24:48.931Z,0
2017-05-24T02:25:49.006Z,0
2017-05-24T02:26:49.004Z,0
2017-05-24T02:27:49.049Z,0
2017-05-24T02:28:49.109Z,0
2017-05-24T02:29:49.110Z,0
2017-05-24T02:30:49.151Z,0
2017-05-24T02:31:49.199Z,0
2017-05-24T02:32:49.210Z,0
2017-05-24T02:33:49.280Z,0
2017-05-24T02:34:49.284Z,0
2017-05-24T02:35:49.320Z,0
2017-05-24T02:36:49.374Z,0
2017-05-24T02:37:49.389Z,0
2017-05-24T02:38:49.410Z,0
2017-05-24T02:39:49.466Z,0
2017-05-24T02:40:49.483Z,0
2017-05-24T02:41:49.518Z,0
2017-05-24T02:42:49.562Z,0
2017-05-24T02:43:49.578Z,0
2017-05-24T02:44:49.630Z,0
2017-05-24T02:45:49.673Z,0
2017-05-24T02:46:49.682Z,0
2017-05-24T02:47:49.713Z,0
2017-05-24T02:48:49.762Z,0
2017-05-24T02:49:49.808Z,0
2017-05-24T02:50:49.831Z,0
2017-05-24T02:51:49.843Z,0
2017-05-24T02:52:49.885Z,0
2017-05-24T02:53:49.915Z,0
2017-05-24T02:54:49.966Z,0
2017-05-24T02:55:49.982Z,0
2017-05-24T02:56:50.016Z,0
2017-05-24T02:57:50.066Z,0
2017-05-24T02:58:50.108Z,5
2017-05-24T02:59:50.109Z,5
2017-05-24T03:00:50.171Z,5
2017-05-24T03:01:50.192Z,5
2017-05-24T03:02:50.200Z,5
2017-05-24T03:03:50.356Z,5
2017-05-24T03:04:50.289Z,5
2017-05-24T03:05:50.320Z,5
2017-05-24T03:06:50.328Z,0
2017-05-24T03:07:50.480Z,5
2017-05-24T03:08:50.429Z,5
2017-05-24T03:09:50.436Z,5
2017-05-24T03:10:50.586Z,0
2017-05-24T03:11:50.531Z,5
2017-05-24T03:12:50.553Z,5
2017-05-24T03:13:50.585Z,5
2017-05-24T03:14:50.625Z,5
2017-05-24T03:15:50.926Z,10
2017-05-24T03:16:50.679Z,10
2017-05-24T03:17:50.717Z,10
2017-05-24T03:18:50.749Z,10
2017-05-24T03:19:50.778Z,10
2017-05-24T03:20:50.841Z,10
2017-05-24T03:21:50.864Z,10
2017-05-24T03:22:50.848Z,10
2017-05-24T03:23:50.932Z,10
2017-05-24T03:24:50.941Z,10
2017-05-24T03:25:50.964Z,10
2017-05-24T03:26:51.027Z,10
2017-05-24T03:27:51.086Z,10
2017-05-24T03:28:51.042Z,10
2017-05-24T03:29:51.120Z,10
2017-05-24T03:30:51.211Z,5
2017-05-24T03:31:51.191Z,5
2017-05-24T03:32:51.170Z,10
2017-05-24T03:33:51.252Z,10
2017-05-24T03:34:51.301Z,15
2017-05-24T03:35:51.326Z,20
2017-05-24T03:36:51.340Z,20
2017-05-24T03:37:51.384Z,25
2017-05-24T03:38:51.510Z,35
2017-05-24T03:39:51.453Z,35
2017-05-24T03:40:51.480Z,30
2017-05-24T03:41:51.542Z,30
2017-05-24T03:42:51.554Z,30
2017-05-24T03:43:51.594Z,30
2017-05-24T03:44:51.621Z,25
2017-05-24T03:45:51.752Z,30
2017-05-24T03:46:51.721Z,25
2017-05-24T03:47:51.720Z,30
2017-05-24T03:48:51.755Z,25
2017-05-24T03:49:51.794Z,25
2017-05-24T03:50:51.795Z,20
2017-05-24T03:51:51.847Z,20
2017-05-24T03:52:51.861Z,20
2017-05-24T03:53:51.914Z,20
2017-05-24T03:54:51.955Z,20
2017-05-24T03:55:51.982Z,20
2017-05-24T03:56:52.026Z,20
2017-05-24T03:57:52.039Z,25
2017-05-24T03:58:52.088Z,35
2017-05-24T03:59:52.119Z,40
2017-05-24T04:00:52.150Z,35
2017-05-24T04:01:52.162Z,35
2017-05-24T04:02:52.241Z,30
2017-05-24T04:03:52.271Z,20
2017-05-24T04:04:52.281Z,15
2017-05-24T04:05:52.331Z,20
2017-05-24T04:06:52.352Z,15
2017-05-24T04:07:52.379Z,20
2017-05-24T04:08:52.431Z,35
2017-05-24T04:09:52.458Z,40
2017-05-24T04:10:52.448Z,45
2017-05-24T04:11:52.521Z,45
2017-05-24T04:12:52.549Z,45
2017-05-24T04:13:52.580Z,45
2017-05-24T04:14:52.621Z,50
2017-05-24T04:15:52.631Z,50
2017-05-24T04:16:52.686Z,55
2017-05-24T04:17:52.727Z,60
2017-05-24T04:18:52.759Z,65
2017-05-24T04:19:52.740Z,65
2017-05-24T04:20:52.818Z,65
2017-05-24T04:21:52.858Z,60
2017-05-24T04:22:52.852Z,55
2017-05-24T04:23:52.916Z,50
2017-05-24T04:24:52.941Z,55
2017-05-24T04:25:52.993Z,45
2017-05-24T04:26:53.002Z,45
2017-05-24T04:27:53.053Z,40
2017-05-24T04:28:53.058Z,40
2017-05-24T04:29:53.126Z,45
2017-05-24T04:30:53.138Z,45
2017-05-24T04:31:53.185Z,35
2017-05-24T04:32:53.221Z,40
2017-05-24T04:33:53.256Z,45
2017-05-24T04:34:53.263Z,40
2017-05-24T04:35:53.310Z,35
2017-05-24T04:36:53.318Z,35
2017-05-24T04:37:53.355Z,35
2017-05-24T04:38:53.422Z,35
2017-05-24T04:39:53.448Z,30
2017-05-24T04:40:53.477Z,25
2017-05-24T04:41:53.514Z,25
2017-05-24T04:42:53.532Z,35
2017-05-24T04:43:53.582Z,45
2017-05-24T04:44:53.611Z,50
2017-05-24T04:45:53.651Z,50
2017-05-24T04:46:53.672Z,50
2017-05-24T04:47:53.721Z,55
2017-05-24T04:48:53.751Z,55
2017-05-24T04:49:53.787Z,60
2017-05-24T04:50:53.879Z,65
2017-05-24T04:51:53.848Z,75
2017-05-24T04:52:53.855Z,70
2017-05-24T04:53:53.919Z,75
2017-05-24T04:54:53.951Z,80
2017-05-24T04:55:53.974Z,80
2017-05-24T04:56:53.992Z,70
2017-05-24T04:57:54.055Z,80
2017-05-24T04:58:54.079Z,85
2017-05-24T04:59:54.122Z,90
2017-05-24T05:00:54.139Z,90
2017-05-24T05:01:54.151Z,85
2017-05-24T05:02:54.418Z,85
2017-05-24T05:03:54.336Z,85
2017-05-24T05:04:54.274Z,80
2017-05-24T05:05:54.312Z,85
2017-05-24T05:06:54.313Z,100
2017-05-24T05:07:54.360Z,100
2017-05-24T05:08:54.477Z,100
2017-05-24T05:09:54.454Z,100
2017-05-24T05:10:54.470Z,100
2017-05-24T05:11:54.522Z,100
2017-05-24T05:12:54.553Z,100
2017-05-24T05:13:54.638Z,100
2017-05-24T05:14:54.767Z,100
2017-05-24T05:15:54.963Z,95
2017-05-24T05:16:54.790Z,90
2017-05-24T05:17:54.701Z,85
2017-05-24T05:18:54.762Z,90
2017-05-24T05:19:54.847Z,100
2017-05-24T05:20:54.814Z,105
2017-05-24T05:21:54.849Z,95
2017-05-24T05:22:54.884Z,95
2017-05-24T05:23:54.943Z,105
2017-05-24T05:24:54.957Z,100
2017-05-24T05:25:55.072Z,100
2017-05-24T05:26:54.996Z,100
2017-05-24T05:27:55.051Z,105
2017-05-24T05:28:55.067Z,105
2017-05-24T05:29:55.127Z,115
2017-05-24T05:30:55.320Z,120
2017-05-24T05:31:55.199Z,125
2017-05-24T05:32:55.214Z,115
2017-05-24T05:33:55.257Z,120
2017-05-24T05:34:55.267Z,120
2017-05-24T05:35:55.774Z,110
2017-05-24T05:36:55.395Z,115
2017-05-24T05:37:55.390Z,120
2017-05-24T05:38:55.411Z,115
2017-05-24T05:39:55.634Z,115
2017-05-24T05:40:55.499Z,110
2017-05-24T05:41:55.530Z,105
2017-05-24T05:42:55.752Z,105
2017-05-24T05:43:55.795Z,105
2017-05-24T05:44:55.826Z,105
2017-05-24T05:45:55.668Z,100
2017-05-24T05:46:55.674Z,90
2017-05-24T05:47:55.741Z,90
2017-05-24T05:48:56.375Z,90
2017-05-24T05:49:55.797Z,95
2017-05-24T05:50:56.059Z,95
2017-05-24T05:51:55.843Z,95
2017-05-24T05:52:55.876Z,100
2017-05-24T05:53:55.901Z,105
2017-05-24T05:54:55.955Z,110
2017-05-24T05:55:55.973Z,105
2017-05-24T05:56:56.020Z,105
2017-05-24T05:57:56.259Z,100
2017-05-24T05:58:56.078Z,95
2017-05-24T05:59:56.120Z,95
2017-05-24T06:00:56.143Z,95
2017-05-24T06:01:56.183Z,100
2017-05-24T06:02:56.701Z,95
2017-05-24T06:03:56.271Z,80
2017-05-24T06:04:56.274Z,75
2017-05-24T06:05:56.314Z,90
2017-05-24T06:06:56.358Z,90
2017-05-24T06:07:56.378Z,85
2017-05-24T06:08:57.020Z,80
2017-05-24T06:09:56.466Z,80
2017-05-24T06:10:56.492Z,85
2017-05-24T06:11:56.699Z,80
2017-05-24T06:12:56.544Z,85
2017-05-24T06:13:56.582Z,85
2017-05-24T06:15:00.937Z,90
2017-05-24T06:15:56.641Z,95
2017-05-24T06:16:57.095Z,80
2017-05-24T06:17:56.915Z,75
2017-05-24T06:18:56.761Z,85
2017-05-24T06:19:56.760Z,80
2017-05-24T06:20:56.805Z,85
2017-05-24T06:21:56.857Z,80
2017-05-24T06:22:56.909Z,85
2017-05-24T06:23:56.926Z,90
2017-05-24T06:24:56.953Z,105
2017-05-24T06:25:57.061Z,120
2017-05-24T06:26:57.027Z,130
2017-05-24T06:27:57.863Z,135
2017-05-24T06:28:57.068Z,145
2017-05-24T06:29:57.127Z,155
2017-05-24T06:30:57.162Z,165
2017-05-24T06:31:57.592Z,170
2017-05-24T06:32:57.233Z,155
2017-05-24T06:33:57.264Z,145
2017-05-24T06:34:57.285Z,135
2017-05-24T06:35:57.315Z,130
2017-05-24T06:36:57.426Z,125
2017-05-24T06:37:57.381Z,120
2017-05-24T06:38:57.425Z,110
2017-05-24T06:39:57.459Z,95
2017-05-24T06:40:57.493Z,85
2017-05-24T06:41:57.535Z,80
2017-05-24T06:42:57.574Z,85
2017-05-24T06:43:57.584Z,80
2017-05-24T06:44:57.632Z,90
2017-05-24T06:45:57.654Z,90
2017-05-24T06:46:57.682Z,80
2017-05-24T06:47:57.734Z,85
2017-05-24T06:48:57.750Z,100
2017-05-24T06:49:57.808Z,115
2017-05-24T06:50:57.823Z,135
2017-05-24T06:51:57.875Z,165
2017-05-24T06:52:57.944Z,165
2017-05-24T06:53:57.917Z,160
2017-05-24T06:54:57.954Z,145
2017-05-24T06:55:58.007Z,150
2017-05-24T06:56:57.992Z,155
2017-05-24T06:57:58.060Z,155
2017-05-24T06:58:58.113Z,160
2017-05-24T06:59:58.098Z,180
2017-05-24T07:00:58.163Z,185
2017-05-24T07:01:58.203Z,175
2017-05-24T07:02:58.661Z,180
2017-05-24T07:03:58.273Z,175
2017-05-24T07:04:58.307Z,170
2017-05-24T07:05:58.299Z,170
2017-05-24T07:06:58.337Z,170
2017-05-24T07:07:58.399Z,175
2017-05-24T07:08:58.567Z,190
2017-05-24T07:09:58.448Z,190
2017-05-24T07:10:58.502Z,190
2017-05-24T07:11:58.528Z,200
2017-05-24T07:12:58.561Z,195
2017-05-24T07:13:58.594Z,210
2017-05-24T07:14:58.647Z,210
2017-05-24T07:15:58.727Z,205
2017-05-24T07:16:58.703Z,205
2017-05-24T07:17:58.772Z,215
2017-05-24T07:18:58.770Z,210
2017-05-24T07:19:58.797Z,200
2017-05-24T07:20:58.852Z,190
2017-05-24T07:21:58.873Z,180
2017-05-24T07:22:58.898Z,180
2017-05-24T07:23:58.926Z,190
2017-05-24T07:24:58.969Z,200
2017-05-24T07:25:58.993Z,200
2017-05-24T07:27:00.065Z,195
2017-05-24T07:27:59.087Z,200
2017-05-24T07:28:59.107Z,205
2017-05-24T07:29:59.154Z,205
2017-05-24T07:30:59.166Z,210
2017-05-24T07:31:59.217Z,235
2017-05-24T07:32:59.236Z,220
2017-05-24T07:33:59.230Z,205
2017-05-24T07:34:59.323Z,195
2017-05-24T07:35:59.365Z,175
2017-05-24T07:37:00.585Z,160
2017-05-24T07:37:59.422Z,155
2017-05-24T07:38:59.457Z,155
2017-05-24T07:39:59.475Z,145
2017-05-24T07:40:59.544Z,150
2017-05-24T07:41:59.531Z,150
2017-05-24T07:42:59.588Z,150
2017-05-24T07:43:59.625Z,160
2017-05-24T07:44:59.667Z,160
2017-05-24T07:45:59.677Z,150
2017-05-24T07:46:59.739Z,140
2017-05-24T07:47:59.746Z,130
2017-05-24T07:48:59.798Z,110
2017-05-24T07:49:59.816Z,95
2017-05-24T07:50:59.842Z,90
2017-05-24T07:51:59.892Z,85
2017-05-24T07:52:59.918Z,85
2017-05-24T07:53:59.945Z,120
2017-05-24T07:55:00.018Z,130
2017-05-24T07:56:00.039Z,125
2017-05-24T07:57:00.073Z,110
2017-05-24T07:58:00.110Z,100
2017-05-24T07:59:00.152Z,90
2017-05-24T08:00:00.138Z,85
2017-05-24T08:01:00.212Z,80
2017-05-24T08:02:00.249Z,75
2017-05-24T08:03:00.528Z,75
2017-05-24T08:04:00.316Z,80
2017-05-24T08:05:00.355Z,75
2017-05-24T08:06:00.380Z,85
2017-05-24T08:07:00.394Z,80
2017-05-24T08:08:00.444Z,90
2017-05-24T08:09:00.478Z,105
2017-05-24T08:10:00.529Z,120
2017-05-24T08:11:00.564Z,130
2017-05-24T08:12:00.566Z,150
2017-05-24T08:13:00.584Z,160
2017-05-24T08:14:00.654Z,175
2017-05-24T08:15:00.891Z,185
2017-05-24T08:16:00.694Z,210
2017-05-24T08:17:00.751Z,225
2017-05-24T08:18:00.797Z,255
2017-05-24T08:19:00.822Z,295
2017-05-24T08:20:00.855Z,320
2017-05-24T08:21:00.856Z,350
2017-05-24T08:22:00.923Z,360
2017-05-24T08:23:00.946Z,330
2017-05-24T08:24:00.977Z,305
2017-05-24T08:25:01.026Z,315
2017-05-24T08:26:01.030Z,300
2017-05-24T08:27:01.069Z,295
2017-05-24T08:28:01.134Z,300
2017-05-24T08:29:01.160Z,315
2017-05-24T08:30:01.202Z,325
2017-05-24T08:31:01.205Z,330
2017-05-24T08:32:01.266Z,315
2017-05-24T08:33:01.291Z,310
2017-05-24T08:34:01.290Z,315
2017-05-24T08:35:01.370Z,340
2017-05-24T08:36:01.408Z,320
2017-05-24T08:37:01.633Z,335
2017-05-24T08:38:01.462Z,330
2017-05-24T08:39:01.462Z,350
2017-05-24T08:40:01.470Z,350
2017-05-24T08:41:01.565Z,365
2017-05-24T08:42:01.603Z,405
2017-05-24T08:43:01.637Z,485
2017-05-24T08:44:01.682Z,445
2017-05-24T08:45:01.697Z,465
2017-05-24T08:46:01.732Z,690
2017-05-24T08:47:01.788Z,675
2017-05-24T08:48:01.821Z,680
2017-05-24T08:49:01.833Z,625
2017-05-24T08:50:01.904Z,760
2017-05-24T08:51:01.914Z,710
2017-05-24T08:52:01.955Z,645
2017-05-24T08:53:01.990Z,620
2017-05-24T08:54:02.032Z,545
2017-05-24T08:55:02.051Z,450
2017-05-24T08:56:02.083Z,360
2017-05-24T08:57:02.125Z,315
2017-05-24T08:58:02.159Z,265
2017-05-24T08:59:02.164Z,345
2017-05-24T09:00:02.246Z,385
2017-05-24T09:01:02.284Z,330
2017-05-24T09:02:02.275Z,240
2017-05-24T09:03:02.540Z,210
2017-05-24T09:04:02.363Z,245
2017-05-24T09:05:02.394Z,270
2017-05-24T09:06:02.459Z,275
2017-05-24T09:07:02.494Z,220
2017-05-24T09:08:02.516Z,215
2017-05-24T09:09:02.523Z,205
2017-05-24T09:10:02.576Z,215
2017-05-24T09:11:02.603Z,315
2017-05-24T09:12:02.641Z,360
2017-05-24T09:13:02.696Z,355
2017-05-24T09:14:02.743Z,335
2017-05-24T09:15:02.745Z,330
2017-05-24T09:16:02.796Z,315
2017-05-24T09:17:02.839Z,280
2017-05-24T09:18:02.874Z,275
2017-05-24T09:19:02.863Z,310
2017-05-24T09:20:02.947Z,345
2017-05-24T09:21:02.942Z,310
2017-05-24T09:22:03.068Z,245
2017-05-24T09:23:03.046Z,195
2017-05-24T09:24:03.093Z,180
2017-05-24T09:25:03.088Z,170
2017-05-24T09:26:03.145Z,170
2017-05-24T09:27:03.144Z,160
2017-05-24T09:28:03.213Z,155
2017-05-24T09:29:03.254Z,140
2017-05-24T09:30:03.325Z,140
2017-05-24T09:31:03.338Z,220
2017-05-24T09:32:03.336Z,290
2017-05-24T09:33:03.384Z,370
2017-05-24T09:34:03.425Z,425
2017-05-24T09:35:03.457Z,460
2017-05-24T09:36:03.485Z,465
2017-05-24T09:37:03.528Z,455
2017-05-24T09:38:03.559Z,475
2017-05-24T09:39:03.616Z,465
2017-05-24T09:40:03.649Z,430
2017-05-24T09:41:03.655Z,385
2017-05-24T09:42:03.641Z,375
2017-05-24T09:43:03.813Z,355
2017-05-24T09:44:03.776Z,325
2017-05-24T09:45:03.804Z,265
2017-05-24T09:46:03.857Z,230
2017-05-24T09:47:03.853Z,245
2017-05-24T09:48:03.901Z,215
2017-05-24T09:49:03.957Z,180
2017-05-24T09:50:03.991Z,180
2017-05-24T09:51:04.005Z,225
2017-05-24T09:52:04.051Z,250
2017-05-24T09:53:04.104Z,250
2017-05-24T09:54:04.128Z,275
2017-05-24T09:55:04.151Z,310
2017-05-24T09:56:04.180Z,310
2017-05-24T09:57:04.297Z,270
2017-05-24T09:58:04.290Z,335
2017-05-24T09:59:04.316Z,375
2017-05-24T10:00:04.320Z,340
2017-05-24T10:01:04.368Z,330
2017-05-24T10:02:04.409Z,370
2017-05-24T10:03:04.468Z,375
2017-05-24T10:04:04.485Z,380
2017-05-24T10:05:04.582Z,395
2017-05-24T10:06:04.540Z,405
2017-05-24T10:07:04.582Z,425
2017-05-24T10:08:04.616Z,430
2017-05-24T10:09:04.648Z,445
2017-05-24T10:10:04.705Z,470
2017-05-24T10:11:04.724Z,440
2017-05-24T10:12:04.759Z,480
2017-05-24T10:13:04.824Z,500
2017-05-24T10:14:04.848Z,540
2017-05-24T10:15:04.880Z,520
2017-05-24T10:16:04.949Z,455
2017-05-24T10:17:04.914Z,415
2017-05-24T10:18:04.954Z,400
2017-05-24T10:19:05.013Z,425
2017-05-24T10:20:05.050Z,420
2017-05-24T10:21:05.039Z,450
2017-05-24T10:22:05.081Z,460
2017-05-24T10:23:05.141Z,450
2017-05-24T10:24:05.160Z,460
2017-05-24T10:25:05.258Z,430
2017-05-24T10:26:05.261Z,420
2017-05-24T10:27:05.309Z,555
2017-05-24T10:28:05.341Z,605
2017-05-24T10:29:05.379Z,575
2017-05-24T10:30:05.467Z,615
2017-05-24T10:31:05.722Z,525
2017-05-24T10:32:05.485Z,420
2017-05-24T10:33:05.483Z,320
2017-05-24T10:34:05.532Z,300
2017-05-24T10:35:05.588Z,330
2017-05-24T10:36:05.622Z,270
2017-05-24T10:37:05.662Z,240
2017-05-24T10:38:05.769Z,265
2017-05-24T10:39:05.738Z,280
2017-05-24T10:40:05.752Z,295
2017-05-24T10:41:05.802Z,410
2017-05-24T10:42:05.850Z,460
2017-05-24T10:43:05.894Z,565
2017-05-24T10:44:05.911Z,695
2017-05-24T10:45:05.955Z,805
2017-05-24T10:46:05.989Z,1155
2017-05-24T10:47:06.012Z,1110
2017-05-24T10:48:06.107Z,945
2017-05-24T10:49:06.101Z,905
2017-05-24T10:50:06.188Z,915
2017-05-24T10:51:06.160Z,1010
2017-05-24T10:52:06.171Z,880
2017-05-24T10:53:06.252Z,790
2017-05-24T10:54:06.255Z,740
2017-05-24T10:55:06.313Z,715
2017-05-24T10:56:06.353Z,620
2017-05-24T10:57:06.393Z,540
2017-05-24T10:58:06.407Z,585
2017-05-24T10:59:06.521Z,630
2017-05-24T11:00:06.521Z,585
2017-05-24T11:01:06.548Z,525
2017-05-24T11:02:06.548Z,440
2017-05-24T11:03:06.630Z,370
2017-05-24T11:04:06.661Z,385
2017-05-24T11:05:06.708Z,390
2017-05-24T11:06:06.716Z,420
2017-05-24T11:07:06.759Z,460
2017-05-24T11:08:06.800Z,485
2017-05-24T11:09:06.820Z,555
2017-05-24T11:10:06.882Z,535
2017-05-24T11:11:06.893Z,540
2017-05-24T11:12:06.952Z,550
2017-05-24T11:13:07.011Z,715
2017-05-24T11:14:07.025Z,700
2017-05-24T11:15:07.070Z,600
2017-05-24T11:16:07.106Z,445
2017-05-24T11:17:07.149Z,290
2017-05-24T11:18:07.154Z,200
2017-05-24T11:19:07.173Z,195
2017-05-24T11:20:07.260Z,265
2017-05-24T11:21:07.281Z,380
2017-05-24T11:22:07.323Z,465
2017-05-24T11:23:07.319Z,430
2017-05-24T11:24:07.388Z,405
2017-05-24T11:25:07.440Z,450
2017-05-24T11:26:07.449Z,495
2017-05-24T11:27:07.581Z,500
2017-05-24T11:28:07.563Z,415
2017-05-24T11:29:07.600Z,365
2017-05-24T11:30:07.641Z,390
2017-05-24T11:31:07.679Z,445
2017-05-24T11:32:07.704Z,540
2017-05-24T11:33:07.750Z,630
2017-05-24T11:34:07.742Z,715
2017-05-24T11:35:07.782Z,730
2017-05-24T11:36:07.834Z,755
2017-05-24T11:37:07.886Z,755
2017-05-24T11:38:07.923Z,780
2017-05-24T11:39:07.960Z,755
2017-05-24T11:40:08.074Z,765
2017-05-24T11:41:08.032Z,710
2017-05-24T11:42:08.073Z,730
2017-05-24T11:43:08.120Z,750
2017-05-24T11:44:08.139Z,705
2017-05-24T11:45:08.208Z,680
2017-05-24T11:46:08.249Z,680
2017-05-24T11:47:08.263Z,660
2017-05-24T11:48:08.303Z,675
2017-05-24T11:49:08.304Z,680
2017-05-24T11:50:08.331Z,580
2017-05-24T11:51:08.385Z,570
2017-05-24T11:52:08.519Z,540
2017-05-24T11:53:08.507Z,600
2017-05-24T11:54:08.564Z,635
2017-05-24T11:55:08.574Z,625
2017-05-24T11:56:08.617Z,590
2017-05-24T11:57:08.677Z,620
2017-05-24T11:58:08.742Z,650
2017-05-24T11:59:08.704Z,680
2017-05-24T12:00:08.744Z,675
2017-05-24T12:01:09.112Z,650
2017-05-24T12:02:08.842Z,700
2017-05-24T12:03:08.869Z,695
2017-05-24T12:04:08.910Z,665
2017-05-24T12:05:09.135Z,595
2017-05-24T12:06:08.995Z,610
2017-05-24T12:07:09.009Z,655
2017-05-24T12:08:09.063Z,610
2017-05-24T12:09:09.110Z,550
2017-05-24T12:10:09.493Z,440
2017-05-24T12:11:09.168Z,540
2017-05-24T12:12:09.213Z,605
2017-05-24T12:13:09.240Z,550
2017-05-24T12:14:09.297Z,475
2017-05-24T12:15:09.359Z,435
2017-05-24T12:16:09.375Z,425
2017-05-24T12:17:09.400Z,480
2017-05-24T12:18:09.464Z,430
2017-05-24T12:19:09.491Z,430
2017-05-24T12:20:09.666Z,355
2017-05-24T12:21:09.538Z,255
2017-05-24T12:22:09.619Z,245
2017-05-24T12:23:09.623Z,320
2017-05-24T12:24:09.684Z,335
2017-05-24T12:25:09.871Z,375
2017-05-24T12:26:09.754Z,385
2017-05-24T12:27:09.787Z,445
2017-05-24T12:28:09.822Z,515
2017-05-24T12:29:09.873Z,490
2017-05-24T12:30:10.054Z,450
2017-05-24T12:31:09.938Z,515
2017-05-24T12:32:09.984Z,500
2017-05-24T12:33:10.030Z,485
2017-05-24T12:34:10.040Z,410
2017-05-24T12:35:10.100Z,385
2017-05-24T12:36:10.097Z,445
2017-05-24T12:37:10.172Z,470
2017-05-24T12:38:10.227Z,475
2017-05-24T12:39:10.239Z,480
2017-05-24T12:40:10.323Z,505
2017-05-24T12:41:10.347Z,510
2017-05-24T12:42:10.366Z,520
2017-05-24T12:43:10.402Z,520
2017-05-24T12:44:10.382Z,540
2017-05-24T12:45:10.462Z,560
2017-05-24T12:46:10.548Z,530
2017-05-24T12:47:10.543Z,495
2017-05-24T12:48:10.586Z,500
2017-05-24T12:49:10.604Z,495
2017-05-24T12:50:10.658Z,430
2017-05-24T12:51:10.692Z,370
2017-05-24T12:52:10.695Z,385
2017-05-24T12:53:10.775Z,345
2017-05-24T12:54:10.811Z,365
2017-05-24T12:55:11.025Z,410
2017-05-24T12:56:10.873Z,465
2017-05-24T12:57:10.935Z,485
2017-05-24T12:58:10.977Z,480
2017-05-24T12:59:11.007Z,500
2017-05-24T13:00:11.034Z,505
2017-05-24T13:01:11.281Z,510
2017-05-24T13:02:11.111Z,495
2017-05-24T13:03:11.204Z,475
2017-05-24T13:04:11.181Z,490
2017-05-24T13:05:11.232Z,490
2017-05-24T13:06:11.265Z,470
2017-05-24T13:07:11.314Z,455
2017-05-24T13:08:11.355Z,435
2017-05-24T13:09:11.375Z,405
2017-05-24T13:10:11.443Z,400
2017-05-24T13:11:11.447Z,395
2017-05-24T13:12:11.465Z,415
2017-05-24T13:13:11.492Z,400
2017-05-24T13:14:11.548Z,385
2017-05-24T13:15:11.592Z,430
2017-05-24T13:16:11.627Z,470
2017-05-24T13:17:11.644Z,495
2017-05-24T13:18:11.712Z,490
2017-05-24T13:19:11.744Z,465
2017-05-24T13:20:11.898Z,460
2017-05-24T13:21:11.839Z,410
2017-05-24T13:22:11.864Z,370
2017-05-24T13:23:11.899Z,355
2017-05-24T13:24:11.945Z,345
2017-05-24T13:25:12.081Z,345
2017-05-24T13:26:12.004Z,310
2017-05-24T13:27:12.046Z,335
2017-05-24T13:28:12.101Z,380
2017-05-24T13:29:12.129Z,405
2017-05-24T13:30:12.303Z,410
2017-05-24T13:31:12.207Z,405
2017-05-24T13:32:12.223Z,385
2017-05-24T13:33:12.275Z,415
2017-05-24T13:34:12.336Z,445
2017-05-24T13:35:12.612Z,455
2017-05-24T13:36:12.378Z,450
2017-05-24T13:37:12.438Z,430
2017-05-24T13:38:12.442Z,400
2017-05-24T13:39:12.501Z,340
2017-05-24T13:40:12.506Z,345
2017-05-24T13:41:12.580Z,380
2017-05-24T13:42:12.629Z,335
2017-05-24T13:43:12.644Z,320
2017-05-24T13:44:12.690Z,300
2017-05-24T13:45:12.799Z,300
2017-05-24T13:46:12.783Z,260
2017-05-24T13:47:12.810Z,295
2017-05-24T13:48:12.839Z,310
2017-05-24T13:49:12.864Z,325
2017-05-24T13:50:12.909Z,295
2017-05-24T13:51:12.950Z,260
2017-05-24T13:52:12.960Z,210
2017-05-24T13:53:13.028Z,180
2017-05-24T13:54:13.041Z,180
2017-05-24T13:55:13.078Z,200
2017-05-24T13:56:13.137Z,210
2017-05-24T13:57:13.172Z,215
2017-05-24T13:58:13.212Z,200
2017-05-24T13:59:13.231Z,180
2017-05-24T14:00:13.279Z,155
2017-05-24T14:01:13.666Z,135
2017-05-24T14:02:13.370Z,130
2017-05-24T14:03:13.398Z,130
2017-05-24T14:04:13.414Z,140
2017-05-24T14:05:13.465Z,155
2017-05-24T14:06:13.504Z,175